sensor_id;sensor_type;location;lat;lon;timestamp;temperature;humidity
11908;DHT22;6014;47.690;9.130;2023-12-29T00:02:05;3.10;99.90
11908;DHT22;6014;47.690;9.130;2023-12-29T00:04:33;3.20;99.90
11908;DHT22;6014;47.690;9.130;2023-12-29T00:07:02;3.20;99.90
11908;DHT22;6014;47.690;9.130;2023-12-29T00:09:30;3.30;99.90
11908;DHT22;6014;47.690;9.130;2023-12-29T00:12:08;3.30;99.90
11908;DHT22;6014;47.690;9.130;2023-12-29T00:14:39;3.30;99.90
11908;DHT22;6014;47.690;9.130;2023-12-29T00:17:07;3.30;99.90
11908;DHT22;6014;47.690;9.130;2023-12-29T00:19:36;3.40;99.90
11908;DHT22;6014;47.690;9.130;2023-12-29T00:22:04;3.50;99.90
11908;DHT22;6014;47.690;9.130;2023-12-29T00:24:33;3.60;99.90
11908;DHT22;6014;47.690;9.130;2023-12-29T00:27:06;3.60;99.90
11908;DHT22;6014;47.690;9.130;2023-12-29T00:29:39;3.60;99.90
11908;DHT22;6014;47.690;9.130;2023-12-29T00:32:07;3.60;99.90
11908;DHT22;6014;47.690;9.130;2023-12-29T00:34:39;3.60;99.90
11908;DHT22;6014;47.690;9.130;2023-12-29T00:37:07;3.70;99.90
11908;DHT22;6014;47.690;9.130;2023-12-29T00:39:36;3.70;99.90
11908;DHT22;6014;47.690;9.130;2023-12-29T00:42:07;3.70;99.90
11908;DHT22;6014;47.690;9.130;2023-12-29T00:44:36;3.80;99.90
11908;DHT22;6014;47.690;9.130;2023-12-29T00:47:05;4.00;99.90
11908;DHT22;6014;47.690;9.130;2023-12-29T00:49:34;4.20;99.90
11908;DHT22;6014;47.690;9.130;2023-12-29T00:52:06;4.20;99.90
11908;DHT22;6014;47.690;9.130;2023-12-29T00:54:40;4.20;99.90
11908;DHT22;6014;47.690;9.130;2023-12-29T00:57:08;4.30;99.90
11908;DHT22;6014;47.690;9.130;2023-12-29T00:59:37;4.40;99.90
11908;DHT22;6014;47.690;9.130;2023-12-29T01:02:08;4.40;99.90
11908;DHT22;6014;47.690;9.130;2023-12-29T01:04:37;4.40;99.90
11908;DHT22;6014;47.690;9.130;2023-12-29T01:07:06;4.40;99.90
11908;DHT22;6014;47.690;9.130;2023-12-29T01:09:37;4.50;99.90
11908;DHT22;6014;47.690;9.130;2023-12-29T01:12:07;4.40;99.90
11908;DHT22;6014;47.690;9.130;2023-12-29T01:14:35;4.40;99.90
11908;DHT22;6014;47.690;9.130;2023-12-29T01:17:04;4.40;99.90
11908;DHT22;6014;47.690;9.130;2023-12-29T01:19:34;4.30;99.90
11908;DHT22;6014;47.690;9.130;2023-12-29T01:22:03;4.10;99.90
11908;DHT22;6014;47.690;9.130;2023-12-29T01:24:31;4.10;99.90
11908;DHT22;6014;47.690;9.130;2023-12-29T01:27:11;4.10;99.90
11908;DHT22;6014;47.690;9.130;2023-12-29T01:29:40;4.00;99.90
11908;DHT22;6014;47.690;9.130;2023-12-29T01:32:08;3.80;99.90
11908;DHT22;6014;47.690;9.130;2023-12-29T01:34:41;3.80;99.90
11908;DHT22;6014;47.690;9.130;2023-12-29T01:37:09;3.70;99.90
11908;DHT22;6014;47.690;9.130;2023-12-29T01:39:37;3.70;99.90
11908;DHT22;6014;47.690;9.130;2023-12-29T01:42:07;3.70;99.90
11908;DHT22;6014;47.690;9.130;2023-12-29T01:44:34;3.60;99.90
11908;DHT22;6014;47.690;9.130;2023-12-29T01:47:04;3.50;99.90
11908;DHT22;6014;47.690;9.130;2023-12-29T01:49:34;3.50;99.90
11908;DHT22;6014;47.690;9.130;2023-12-29T01:52:05;3.50;99.90
11908;DHT22;6014;47.690;9.130;2023-12-29T01:54:35;3.30;99.90
11908;DHT22;6014;47.690;9.130;2023-12-29T01:57:05;3.20;99.90
11908;DHT22;6014;47.690;9.130;2023-12-29T01:59:35;3.10;99.90
11908;DHT22;6014;47.690;9.130;2023-12-29T02:02:04;3.00;99.90
11908;DHT22;6014;47.690;9.130;2023-12-29T02:04:33;3.00;99.90
11908;DHT22;6014;47.690;9.130;2023-12-29T02:07:05;3.10;99.90
11908;DHT22;6014;47.690;9.130;2023-12-29T02:09:34;3.20;99.90
11908;DHT22;6014;47.690;9.130;2023-12-29T02:12:02;3.20;99.90
11908;DHT22;6014;47.690;9.130;2023-12-29T02:14:31;3.20;99.90
11908;DHT22;6014;47.690;9.130;2023-12-29T02:17:05;3.10;99.90
11908;DHT22;6014;47.690;9.130;2023-12-29T02:19:38;3.10;99.90
11908;DHT22;6014;47.690;9.130;2023-12-29T02:22:09;3.00;99.90
11908;DHT22;6014;47.690;9.130;2023-12-29T02:24:38;3.00;99.90
11908;DHT22;6014;47.690;9.130;2023-12-29T02:27:23;3.00;99.90
11908;DHT22;6014;47.690;9.130;2023-12-29T02:30:10;2.90;99.90
11908;DHT22;6014;47.690;9.130;2023-12-29T02:32:42;2.80;99.90
11908;DHT22;6014;47.690;9.130;2023-12-29T02:35:16;2.80;99.90
11908;DHT22;6014;47.690;9.130;2023-12-29T02:37:46;2.70;99.90
11908;DHT22;6014;47.690;9.130;2023-12-29T02:40:16;2.70;99.90
11908;DHT22;6014;47.690;9.130;2023-12-29T02:42:46;2.70;99.90
11908;DHT22;6014;47.690;9.130;2023-12-29T02:45:15;2.60;99.90
11908;DHT22;6014;47.690;9.130;2023-12-29T02:47:44;2.50;99.90
11908;DHT22;6014;47.690;9.130;2023-12-29T02:50:20;2.60;99.90
11908;DHT22;6014;47.690;9.130;2023-12-29T02:52:48;2.60;99.90
11908;DHT22;6014;47.690;9.130;2023-12-29T02:55:17;2.60;99.90
11908;DHT22;6014;47.690;9.130;2023-12-29T02:57:47;2.60;99.90
11908;DHT22;6014;47.690;9.130;2023-12-29T03:00:17;2.60;99.90
11908;DHT22;6014;47.690;9.130;2023-12-29T03:02:46;2.60;99.90
11908;DHT22;6014;47.690;9.130;2023-12-29T03:05:15;2.60;99.90
11908;DHT22;6014;47.690;9.130;2023-12-29T03:07:46;2.70;99.90
11908;DHT22;6014;47.690;9.130;2023-12-29T03:10:20;2.70;99.90
11908;DHT22;6014;47.690;9.130;2023-12-29T03:12:50;2.80;99.90
11908;DHT22;6014;47.690;9.130;2023-12-29T03:15:18;2.90;99.90
11908;DHT22;6014;47.690;9.130;2023-12-29T03:17:47;2.90;99.90
11908;DHT22;6014;47.690;9.130;2023-12-29T03:20:15;3.00;99.90
11908;DHT22;6014;47.690;9.130;2023-12-29T03:22:43;3.00;99.90
11908;DHT22;6014;47.690;9.130;2023-12-29T03:25:11;3.00;99.90
11908;DHT22;6014;47.690;9.130;2023-12-29T03:27:40;3.00;99.90
11908;DHT22;6014;47.690;9.130;2023-12-29T03:30:11;3.00;99.90
11908;DHT22;6014;47.690;9.130;2023-12-29T03:32:40;3.10;99.90
11908;DHT22;6014;47.690;9.130;2023-12-29T03:35:08;3.10;99.90
11908;DHT22;6014;47.690;9.130;2023-12-29T03:37:37;3.20;99.90
11908;DHT22;6014;47.690;9.130;2023-12-29T03:40:07;3.40;99.90
11908;DHT22;6014;47.690;9.130;2023-12-29T03:42:46;3.40;99.90
11908;DHT22;6014;47.690;9.130;2023-12-29T03:45:22;3.40;99.90
11908;DHT22;6014;47.690;9.130;2023-12-29T03:47:51;3.30;99.90
11908;DHT22;6014;47.690;9.130;2023-12-29T03:50:23;3.30;99.90
11908;DHT22;6014;47.690;9.130;2023-12-29T03:52:51;3.30;99.90
11908;DHT22;6014;47.690;9.130;2023-12-29T03:55:20;3.30;99.90
11908;DHT22;6014;47.690;9.130;2023-12-29T03:57:48;3.30;99.90
11908;DHT22;6014;47.690;9.130;2023-12-29T04:00:17;3.40;99.90
11908;DHT22;6014;47.690;9.130;2023-12-29T04:02:47;3.50;99.90
11908;DHT22;6014;47.690;9.130;2023-12-29T04:05:15;3.50;99.90
11908;DHT22;6014;47.690;9.130;2023-12-29T04:07:43;3.50;99.90
11908;DHT22;6014;47.690;9.130;2023-12-29T04:10:13;3.60;99.90
11908;DHT22;6014;47.690;9.130;2023-12-29T04:12:41;3.60;99.90
11908;DHT22;6014;47.690;9.130;2023-12-29T04:15:10;3.50;99.90
11908;DHT22;6014;47.690;9.130;2023-12-29T04:17:38;3.70;99.90
11908;DHT22;6014;47.690;9.130;2023-12-29T04:20:08;3.80;99.90
11908;DHT22;6014;47.690;9.130;2023-12-29T04:22:37;3.80;99.90
11908;DHT22;6014;47.690;9.130;2023-12-29T04:25:06;3.80;99.90
11908;DHT22;6014;47.690;9.130;2023-12-29T04:27:35;3.90;99.90
11908;DHT22;6014;47.690;9.130;2023-12-29T04:30:04;3.90;99.90
11908;DHT22;6014;47.690;9.130;2023-12-29T04:32:33;3.90;99.90
11908;DHT22;6014;47.690;9.130;2023-12-29T04:35:02;4.00;99.90
11908;DHT22;6014;47.690;9.130;2023-12-29T04:37:32;3.90;99.90
11908;DHT22;6014;47.690;9.130;2023-12-29T04:40:00;3.90;99.90
11908;DHT22;6014;47.690;9.130;2023-12-29T04:42:28;4.00;99.90
11908;DHT22;6014;47.690;9.130;2023-12-29T04:44:57;4.00;99.90
11908;DHT22;6014;47.690;9.130;2023-12-29T04:47:25;4.20;99.90
11908;DHT22;6014;47.690;9.130;2023-12-29T04:50:00;4.30;99.90
11908;DHT22;6014;47.690;9.130;2023-12-29T04:52:29;4.30;99.90
11908;DHT22;6014;47.690;9.130;2023-12-29T04:54:58;4.20;99.90
11908;DHT22;6014;47.690;9.130;2023-12-29T04:57:27;4.40;99.90
11908;DHT22;6014;47.690;9.130;2023-12-29T04:59:55;4.30;99.90
11908;DHT22;6014;47.690;9.130;2023-12-29T05:02:23;4.30;99.90
11908;DHT22;6014;47.690;9.130;2023-12-29T05:04:52;4.40;99.90
11908;DHT22;6014;47.690;9.130;2023-12-29T05:07:20;4.50;99.90
11908;DHT22;6014;47.690;9.130;2023-12-29T05:09:48;4.50;99.90
11908;DHT22;6014;47.690;9.130;2023-12-29T05:12:18;4.60;99.90
11908;DHT22;6014;47.690;9.130;2023-12-29T05:14:47;4.70;99.90
11908;DHT22;6014;47.690;9.130;2023-12-29T05:17:15;4.60;99.90
11908;DHT22;6014;47.690;9.130;2023-12-29T05:19:43;4.80;99.90
11908;DHT22;6014;47.690;9.130;2023-12-29T05:22:12;5.10;99.90
11908;DHT22;6014;47.690;9.130;2023-12-29T05:24:44;4.80;99.90
11908;DHT22;6014;47.690;9.130;2023-12-29T05:27:12;4.80;99.90
11908;DHT22;6014;47.690;9.130;2023-12-29T05:29:42;4.80;99.90
11908;DHT22;6014;47.690;9.130;2023-12-29T05:32:11;4.90;99.90
11908;DHT22;6014;47.690;9.130;2023-12-29T05:34:39;4.90;99.90
11908;DHT22;6014;47.690;9.130;2023-12-29T05:37:08;4.90;99.90
11908;DHT22;6014;47.690;9.130;2023-12-29T05:39:37;5.10;99.90
11908;DHT22;6014;47.690;9.130;2023-12-29T05:42:05;5.20;99.90
11908;DHT22;6014;47.690;9.130;2023-12-29T05:44:36;5.20;99.90
11908;DHT22;6014;47.690;9.130;2023-12-29T05:47:05;5.20;99.90
11908;DHT22;6014;47.690;9.130;2023-12-29T05:49:34;5.30;99.90
11908;DHT22;6014;47.690;9.130;2023-12-29T05:52:06;5.40;99.90
11908;DHT22;6014;47.690;9.130;2023-12-29T05:54:35;5.50;99.90
11908;DHT22;6014;47.690;9.130;2023-12-29T05:57:03;5.40;99.90
11908;DHT22;6014;47.690;9.130;2023-12-29T05:59:32;5.40;99.90
11908;DHT22;6014;47.690;9.130;2023-12-29T06:02:00;5.50;99.90
11908;DHT22;6014;47.690;9.130;2023-12-29T06:04:30;5.50;99.90
11908;DHT22;6014;47.690;9.130;2023-12-29T06:06:58;5.60;99.90
11908;DHT22;6014;47.690;9.130;2023-12-29T06:09:27;5.80;99.90
11908;DHT22;6014;47.690;9.130;2023-12-29T06:11:55;5.70;99.90
11908;DHT22;6014;47.690;9.130;2023-12-29T06:14:24;5.80;99.90
11908;DHT22;6014;47.690;9.130;2023-12-29T06:16:52;5.70;99.90
11908;DHT22;6014;47.690;9.130;2023-12-29T06:19:21;5.70;99.90
11908;DHT22;6014;47.690;9.130;2023-12-29T06:21:51;5.80;99.90
11908;DHT22;6014;47.690;9.130;2023-12-29T06:24:19;5.80;99.90
11908;DHT22;6014;47.690;9.130;2023-12-29T06:26:47;5.80;99.90
11908;DHT22;6014;47.690;9.130;2023-12-29T06:29:16;6.00;99.90
11908;DHT22;6014;47.690;9.130;2023-12-29T06:31:44;6.00;99.90
11908;DHT22;6014;47.690;9.130;2023-12-29T06:34:13;6.10;99.90
11908;DHT22;6014;47.690;9.130;2023-12-29T06:36:41;6.10;99.90
11908;DHT22;6014;47.690;9.130;2023-12-29T06:39:11;6.10;99.90
11908;DHT22;6014;47.690;9.130;2023-12-29T06:41:40;6.00;99.90
11908;DHT22;6014;47.690;9.130;2023-12-29T06:44:08;6.00;99.90
11908;DHT22;6014;47.690;9.130;2023-12-29T06:46:37;6.10;99.90
11908;DHT22;6014;47.690;9.130;2023-12-29T06:49:07;6.00;99.90
11908;DHT22;6014;47.690;9.130;2023-12-29T06:51:36;6.00;99.90
11908;DHT22;6014;47.690;9.130;2023-12-29T06:54:06;6.00;99.90
11908;DHT22;6014;47.690;9.130;2023-12-29T06:56:36;6.00;99.90
11908;DHT22;6014;47.690;9.130;2023-12-29T06:59:04;6.00;99.90
11908;DHT22;6014;47.690;9.130;2023-12-29T07:01:33;6.10;99.90
11908;DHT22;6014;47.690;9.130;2023-12-29T07:04:00;6.10;99.90
11908;DHT22;6014;47.690;9.130;2023-12-29T07:06:29;6.30;99.90
11908;DHT22;6014;47.690;9.130;2023-12-29T07:08:57;6.20;99.90
11908;DHT22;6014;47.690;9.130;2023-12-29T07:11:28;6.20;99.90
11908;DHT22;6014;47.690;9.130;2023-12-29T07:13:57;6.20;99.90
11908;DHT22;6014;47.690;9.130;2023-12-29T07:16:26;6.20;99.90
11908;DHT22;6014;47.690;9.130;2023-12-29T07:18:54;6.30;99.90
11908;DHT22;6014;47.690;9.130;2023-12-29T07:21:23;6.30;99.90
11908;DHT22;6014;47.690;9.130;2023-12-29T07:23:51;6.30;99.90
11908;DHT22;6014;47.690;9.130;2023-12-29T07:26:20;6.30;99.90
11908;DHT22;6014;47.690;9.130;2023-12-29T07:28:48;6.30;99.90
11908;DHT22;6014;47.690;9.130;2023-12-29T07:31:22;6.40;99.90
11908;DHT22;6014;47.690;9.130;2023-12-29T07:33:51;6.30;99.90
11908;DHT22;6014;47.690;9.130;2023-12-29T07:36:19;6.40;99.90
11908;DHT22;6014;47.690;9.130;2023-12-29T07:38:48;6.30;99.90
11908;DHT22;6014;47.690;9.130;2023-12-29T07:41:16;6.30;99.90
11908;DHT22;6014;47.690;9.130;2023-12-29T07:43:45;6.30;99.90
11908;DHT22;6014;47.690;9.130;2023-12-29T07:46:13;6.40;99.90
11908;DHT22;6014;47.690;9.130;2023-12-29T07:48:53;6.40;99.90
11908;DHT22;6014;47.690;9.130;2023-12-29T07:51:21;6.50;99.90
11908;DHT22;6014;47.690;9.130;2023-12-29T07:53:50;6.50;99.90
11908;DHT22;6014;47.690;9.130;2023-12-29T07:56:18;6.60;99.90
11908;DHT22;6014;47.690;9.130;2023-12-29T07:58:46;6.60;99.90
11908;DHT22;6014;47.690;9.130;2023-12-29T08:01:16;6.60;99.90
11908;DHT22;6014;47.690;9.130;2023-12-29T08:03:46;6.60;99.90
11908;DHT22;6014;47.690;9.130;2023-12-29T08:06:15;6.60;99.90
11908;DHT22;6014;47.690;9.130;2023-12-29T08:08:43;6.80;99.90
11908;DHT22;6014;47.690;9.130;2023-12-29T08:11:14;6.70;99.90
11908;DHT22;6014;47.690;9.130;2023-12-29T08:13:44;6.70;99.90
11908;DHT22;6014;47.690;9.130;2023-12-29T08:16:15;6.80;99.90
11908;DHT22;6014;47.690;9.130;2023-12-29T08:18:49;6.70;99.90
11908;DHT22;6014;47.690;9.130;2023-12-29T08:21:18;6.80;99.90
11908;DHT22;6014;47.690;9.130;2023-12-29T08:23:47;6.80;99.90
11908;DHT22;6014;47.690;9.130;2023-12-29T08:26:16;6.80;99.90
11908;DHT22;6014;47.690;9.130;2023-12-29T08:28:44;6.80;99.90
11908;DHT22;6014;47.690;9.130;2023-12-29T08:31:14;6.90;99.90
11908;DHT22;6014;47.690;9.130;2023-12-29T08:33:43;6.90;99.90
11908;DHT22;6014;47.690;9.130;2023-12-29T08:36:12;7.00;99.90
11908;DHT22;6014;47.690;9.130;2023-12-29T08:38:41;7.10;99.90
11908;DHT22;6014;47.690;9.130;2023-12-29T08:41:09;7.20;99.90
11908;DHT22;6014;47.690;9.130;2023-12-29T08:43:37;7.30;99.90
11908;DHT22;6014;47.690;9.130;2023-12-29T08:46:06;7.20;99.90
11908;DHT22;6014;47.690;9.130;2023-12-29T08:48:34;7.40;99.90
11908;DHT22;6014;47.690;9.130;2023-12-29T08:51:02;7.40;99.90
11908;DHT22;6014;47.690;9.130;2023-12-29T08:53:32;7.60;99.90
11908;DHT22;6014;47.690;9.130;2023-12-29T08:56:02;7.70;99.90
11908;DHT22;6014;47.690;9.130;2023-12-29T08:58:32;7.70;99.90
11908;DHT22;6014;47.690;9.130;2023-12-29T09:01:00;8.00;99.90
11908;DHT22;6014;47.690;9.130;2023-12-29T09:03:29;8.00;99.90
11908;DHT22;6014;47.690;9.130;2023-12-29T09:05:57;8.30;99.90
11908;DHT22;6014;47.690;9.130;2023-12-29T09:08:28;8.50;99.90
11908;DHT22;6014;47.690;9.130;2023-12-29T09:10:57;8.50;99.90
11908;DHT22;6014;47.690;9.130;2023-12-29T09:13:26;8.70;99.90
11908;DHT22;6014;47.690;9.130;2023-12-29T09:15:54;8.80;99.90
11908;DHT22;6014;47.690;9.130;2023-12-29T09:18:23;8.90;99.90
11908;DHT22;6014;47.690;9.130;2023-12-29T09:20:51;9.00;99.90
11908;DHT22;6014;47.690;9.130;2023-12-29T09:23:20;9.10;99.90
11908;DHT22;6014;47.690;9.130;2023-12-29T09:25:48;9.20;99.90
11908;DHT22;6014;47.690;9.130;2023-12-29T09:28:18;9.30;99.90
11908;DHT22;6014;47.690;9.130;2023-12-29T09:30:46;9.20;99.90
11908;DHT22;6014;47.690;9.130;2023-12-29T09:33:17;9.30;99.90
11908;DHT22;6014;47.690;9.130;2023-12-29T09:35:46;9.40;99.90
11908;DHT22;6014;47.690;9.130;2023-12-29T09:38:14;9.40;99.90
11908;DHT22;6014;47.690;9.130;2023-12-29T09:40:43;9.40;99.90
11908;DHT22;6014;47.690;9.130;2023-12-29T09:43:12;9.40;99.90
11908;DHT22;6014;47.690;9.130;2023-12-29T09:45:45;9.40;99.90
11908;DHT22;6014;47.690;9.130;2023-12-29T09:48:16;9.60;99.90
11908;DHT22;6014;47.690;9.130;2023-12-29T09:50:47;9.60;99.90
11908;DHT22;6014;47.690;9.130;2023-12-29T09:53:19;9.60;99.90
11908;DHT22;6014;47.690;9.130;2023-12-29T09:55:48;9.60;99.90
11908;DHT22;6014;47.690;9.130;2023-12-29T09:58:17;9.60;99.90
11908;DHT22;6014;47.690;9.130;2023-12-29T10:00:49;9.60;99.90
11908;DHT22;6014;47.690;9.130;2023-12-29T10:03:18;9.60;99.90
11908;DHT22;6014;47.690;9.130;2023-12-29T10:05:49;9.70;99.90
11908;DHT22;6014;47.690;9.130;2023-12-29T10:08:22;9.70;99.90
11908;DHT22;6014;47.690;9.130;2023-12-29T10:10:51;9.70;99.90
11908;DHT22;6014;47.690;9.130;2023-12-29T10:13:22;9.70;99.90
11908;DHT22;6014;47.690;9.130;2023-12-29T10:15:57;9.80;99.90
11908;DHT22;6014;47.690;9.130;2023-12-29T10:18:38;9.90;99.90
11908;DHT22;6014;47.690;9.130;2023-12-29T10:21:17;9.80;99.90
11908;DHT22;6014;47.690;9.130;2023-12-29T10:23:53;9.90;99.90
11908;DHT22;6014;47.690;9.130;2023-12-29T10:26:25;10.00;99.90
11908;DHT22;6014;47.690;9.130;2023-12-29T10:28:54;10.00;99.90
11908;DHT22;6014;47.690;9.130;2023-12-29T10:31:24;10.10;99.90
11908;DHT22;6014;47.690;9.130;2023-12-29T10:33:53;10.20;99.90
11908;DHT22;6014;47.690;9.130;2023-12-29T10:36:48;10.20;99.90
11908;DHT22;6014;47.690;9.130;2023-12-29T10:39:17;10.30;99.90
11908;DHT22;6014;47.690;9.130;2023-12-29T10:41:45;10.30;99.90
11908;DHT22;6014;47.690;9.130;2023-12-29T10:44:13;10.40;99.90
11908;DHT22;6014;47.690;9.130;2023-12-29T10:46:43;10.30;99.90
11908;DHT22;6014;47.690;9.130;2023-12-29T10:49:12;10.40;99.90
11908;DHT22;6014;47.690;9.130;2023-12-29T10:51:41;10.40;99.90
11908;DHT22;6014;47.690;9.130;2023-12-29T10:54:19;10.50;99.90
11908;DHT22;6014;47.690;9.130;2023-12-29T10:57:00;10.50;99.90
11908;DHT22;6014;47.690;9.130;2023-12-29T10:59:30;10.40;99.90
11908;DHT22;6014;47.690;9.130;2023-12-29T11:02:01;10.40;99.90
11908;DHT22;6014;47.690;9.130;2023-12-29T11:04:33;10.50;99.90
11908;DHT22;6014;47.690;9.130;2023-12-29T11:07:02;10.60;99.90
11908;DHT22;6014;47.690;9.130;2023-12-29T11:09:31;10.70;99.90
11908;DHT22;6014;47.690;9.130;2023-12-29T11:12:01;10.70;99.90
11908;DHT22;6014;47.690;9.130;2023-12-29T11:14:31;10.70;99.90
11908;DHT22;6014;47.690;9.130;2023-12-29T11:17:02;10.80;99.90
11908;DHT22;6014;47.690;9.130;2023-12-29T11:19:32;10.90;99.90
11908;DHT22;6014;47.690;9.130;2023-12-29T11:22:01;10.90;99.90
11908;DHT22;6014;47.690;9.130;2023-12-29T11:24:31;10.90;99.90
11908;DHT22;6014;47.690;9.130;2023-12-29T11:27:07;10.90;99.90
11908;DHT22;6014;47.690;9.130;2023-12-29T11:32:59;11.20;99.90
11908;DHT22;6014;47.690;9.130;2023-12-29T11:35:34;11.20;99.90
11908;DHT22;6014;47.690;9.130;2023-12-29T11:38:29;11.30;99.90
11908;DHT22;6014;47.690;9.130;2023-12-29T11:41:09;11.50;99.90
11908;DHT22;6014;47.690;9.130;2023-12-29T11:43:40;11.60;99.90
11908;DHT22;6014;47.690;9.130;2023-12-29T11:46:32;11.70;99.90
11908;DHT22;6014;47.690;9.130;2023-12-29T11:49:02;11.70;99.90
11908;DHT22;6014;47.690;9.130;2023-12-29T11:51:33;11.60;99.90
11908;DHT22;6014;47.690;9.130;2023-12-29T11:54:03;11.50;99.90
11908;DHT22;6014;47.690;9.130;2023-12-29T11:56:34;11.50;99.90
11908;DHT22;6014;47.690;9.130;2023-12-29T11:59:16;11.50;99.90
11908;DHT22;6014;47.690;9.130;2023-12-29T12:01:49;11.50;99.90
11908;DHT22;6014;47.690;9.130;2023-12-29T12:04:44;11.50;99.90
11908;DHT22;6014;47.690;9.130;2023-12-29T12:07:17;11.50;99.90
11908;DHT22;6014;47.690;9.130;2023-12-29T12:09:45;11.40;99.90
11908;DHT22;6014;47.690;9.130;2023-12-29T12:12:38;11.30;99.90
11908;DHT22;6014;47.690;9.130;2023-12-29T12:15:33;11.30;99.90
11908;DHT22;6014;47.690;9.130;2023-12-29T12:18:03;11.30;99.90
11908;DHT22;6014;47.690;9.130;2023-12-29T12:20:36;11.30;99.90
11908;DHT22;6014;47.690;9.130;2023-12-29T12:23:18;11.30;99.90
11908;DHT22;6014;47.690;9.130;2023-12-29T12:25:47;11.30;99.90
11908;DHT22;6014;47.690;9.130;2023-12-29T12:28:20;11.40;99.90
11908;DHT22;6014;47.690;9.130;2023-12-29T12:30:49;11.40;99.90
11908;DHT22;6014;47.690;9.130;2023-12-29T12:33:17;11.50;99.90
11908;DHT22;6014;47.690;9.130;2023-12-29T12:35:59;11.50;99.90
11908;DHT22;6014;47.690;9.130;2023-12-29T12:38:27;11.50;99.90
11908;DHT22;6014;47.690;9.130;2023-12-29T12:41:09;11.50;99.90
11908;DHT22;6014;47.690;9.130;2023-12-29T12:43:45;11.40;99.90
11908;DHT22;6014;47.690;9.130;2023-12-29T12:46:22;11.50;99.90
11908;DHT22;6014;47.690;9.130;2023-12-29T12:48:52;11.40;99.90
11908;DHT22;6014;47.690;9.130;2023-12-29T12:51:23;11.50;99.90
11908;DHT22;6014;47.690;9.130;2023-12-29T12:53:53;11.50;99.90
11908;DHT22;6014;47.690;9.130;2023-12-29T12:56:27;11.60;99.50
11908;DHT22;6014;47.690;9.130;2023-12-29T12:58:56;11.60;99.50
11908;DHT22;6014;47.690;9.130;2023-12-29T13:01:25;11.70;99.40
11908;DHT22;6014;47.690;9.130;2023-12-29T13:03:54;11.70;99.00
11908;DHT22;6014;47.690;9.130;2023-12-29T13:06:29;11.70;99.10
11908;DHT22;6014;47.690;9.130;2023-12-29T13:08:58;11.70;99.60
11908;DHT22;6014;47.690;9.130;2023-12-29T13:11:28;11.60;99.20
11908;DHT22;6014;47.690;9.130;2023-12-29T13:13:56;11.60;99.20
11908;DHT22;6014;47.690;9.130;2023-12-29T13:16:30;11.60;98.70
11908;DHT22;6014;47.690;9.130;2023-12-29T13:19:15;11.60;98.80
11908;DHT22;6014;47.690;9.130;2023-12-29T13:21:51;11.60;98.70
11908;DHT22;6014;47.690;9.130;2023-12-29T13:24:23;11.70;98.70
11908;DHT22;6014;47.690;9.130;2023-12-29T13:26:56;11.70;98.20
11908;DHT22;6014;47.690;9.130;2023-12-29T13:29:26;11.70;97.90
11908;DHT22;6014;47.690;9.130;2023-12-29T13:32:05;11.70;97.80
11908;DHT22;6014;47.690;9.130;2023-12-29T13:34:42;11.70;97.80
11908;DHT22;6014;47.690;9.130;2023-12-29T13:37:31;11.60;98.10
11908;DHT22;6014;47.690;9.130;2023-12-29T13:40:13;11.50;98.50
11908;DHT22;6014;47.690;9.130;2023-12-29T13:42:48;11.60;98.20
11908;DHT22;6014;47.690;9.130;2023-12-29T13:45:19;11.50;98.10
11908;DHT22;6014;47.690;9.130;2023-12-29T13:47:48;11.50;98.40
11908;DHT22;6014;47.690;9.130;2023-12-29T13:50:17;11.60;98.20
11908;DHT22;6014;47.690;9.130;2023-12-29T13:52:47;11.70;97.80
11908;DHT22;6014;47.690;9.130;2023-12-29T13:55:21;11.60;98.00
11908;DHT22;6014;47.690;9.130;2023-12-29T13:57:53;11.60;97.70
11908;DHT22;6014;47.690;9.130;2023-12-29T14:00:24;11.60;97.70
11908;DHT22;6014;47.690;9.130;2023-12-29T14:03:02;11.80;97.10
11908;DHT22;6014;47.690;9.130;2023-12-29T14:05:38;11.70;97.20
11908;DHT22;6014;47.690;9.130;2023-12-29T14:08:17;11.70;97.40
11908;DHT22;6014;47.690;9.130;2023-12-29T14:10:47;11.70;97.10
11908;DHT22;6014;47.690;9.130;2023-12-29T14:13:16;11.60;97.00
11908;DHT22;6014;47.690;9.130;2023-12-29T14:15:46;11.70;97.00
11908;DHT22;6014;47.690;9.130;2023-12-29T14:18:39;11.60;97.20
11908;DHT22;6014;47.690;9.130;2023-12-29T14:21:22;11.60;97.10
11908;DHT22;6014;47.690;9.130;2023-12-29T14:24:09;11.50;97.20
11908;DHT22;6014;47.690;9.130;2023-12-29T14:26:40;11.40;97.40
11908;DHT22;6014;47.690;9.130;2023-12-29T14:29:11;11.40;97.70
11908;DHT22;6014;47.690;9.130;2023-12-29T14:31:41;11.40;97.60
11908;DHT22;6014;47.690;9.130;2023-12-29T14:34:10;11.30;97.60
11908;DHT22;6014;47.690;9.130;2023-12-29T14:36:40;11.30;98.10
11908;DHT22;6014;47.690;9.130;2023-12-29T14:39:11;11.20;98.20
11908;DHT22;6014;47.690;9.130;2023-12-29T14:41:39;11.20;98.20
11908;DHT22;6014;47.690;9.130;2023-12-29T14:44:08;11.10;98.20
11908;DHT22;6014;47.690;9.130;2023-12-29T14:46:36;11.10;98.90
11908;DHT22;6014;47.690;9.130;2023-12-29T14:49:05;11.00;98.90
11908;DHT22;6014;47.690;9.130;2023-12-29T14:51:34;10.90;99.10
11908;DHT22;6014;47.690;9.130;2023-12-29T14:54:03;10.80;99.30
11908;DHT22;6014;47.690;9.130;2023-12-29T14:56:32;10.80;99.50
11908;DHT22;6014;47.690;9.130;2023-12-29T14:59:01;10.80;99.40
11908;DHT22;6014;47.690;9.130;2023-12-29T15:01:32;10.90;98.80
11908;DHT22;6014;47.690;9.130;2023-12-29T15:04:00;11.10;98.20
11908;DHT22;6014;47.690;9.130;2023-12-29T15:06:29;11.00;98.30
11908;DHT22;6014;47.690;9.130;2023-12-29T15:08:57;11.10;98.10
11908;DHT22;6014;47.690;9.130;2023-12-29T15:11:25;11.00;98.30
11908;DHT22;6014;47.690;9.130;2023-12-29T15:13:55;10.90;98.40
11908;DHT22;6014;47.690;9.130;2023-12-29T15:16:23;10.90;98.60
11908;DHT22;6014;47.690;9.130;2023-12-29T15:18:53;10.70;99.00
11908;DHT22;6014;47.690;9.130;2023-12-29T15:21:21;10.90;98.40
11908;DHT22;6014;47.690;9.130;2023-12-29T15:23:49;10.80;98.50
11908;DHT22;6014;47.690;9.130;2023-12-29T15:26:17;10.70;99.20
11908;DHT22;6014;47.690;9.130;2023-12-29T15:28:46;10.70;98.50
11908;DHT22;6014;47.690;9.130;2023-12-29T15:31:15;10.70;98.60
11908;DHT22;6014;47.690;9.130;2023-12-29T15:33:44;10.60;98.80
11908;DHT22;6014;47.690;9.130;2023-12-29T15:36:12;10.50;99.10
11908;DHT22;6014;47.690;9.130;2023-12-29T15:38:42;10.50;99.40
11908;DHT22;6014;47.690;9.130;2023-12-29T15:41:10;10.40;99.70
11908;DHT22;6014;47.690;9.130;2023-12-29T15:43:39;10.30;99.90
11908;DHT22;6014;47.690;9.130;2023-12-29T15:46:13;10.30;99.60
11908;DHT22;6014;47.690;9.130;2023-12-29T15:48:43;10.30;99.90
11908;DHT22;6014;47.690;9.130;2023-12-29T15:51:12;10.30;99.70
11908;DHT22;6014;47.690;9.130;2023-12-29T15:53:40;10.30;99.90
11908;DHT22;6014;47.690;9.130;2023-12-29T15:56:16;10.30;99.90
11908;DHT22;6014;47.690;9.130;2023-12-29T15:58:45;10.20;99.90
11908;DHT22;6014;47.690;9.130;2023-12-29T16:01:21;10.10;99.90
11908;DHT22;6014;47.690;9.130;2023-12-29T16:03:52;10.10;99.90
11908;DHT22;6014;47.690;9.130;2023-12-29T16:06:21;10.00;99.90
11908;DHT22;6014;47.690;9.130;2023-12-29T16:08:49;10.00;99.90
11908;DHT22;6014;47.690;9.130;2023-12-29T16:11:20;10.00;99.90
11908;DHT22;6014;47.690;9.130;2023-12-29T16:13:49;10.00;99.90
11908;DHT22;6014;47.690;9.130;2023-12-29T16:16:17;9.90;99.90
11908;DHT22;6014;47.690;9.130;2023-12-29T16:18:48;10.00;99.90
11908;DHT22;6014;47.690;9.130;2023-12-29T16:21:16;10.00;99.90
11908;DHT22;6014;47.690;9.130;2023-12-29T16:23:44;10.00;99.90